Time;durP1;ratioP1;P1;durP2;ratioP2;P2;SDS_P1;SDS_P2;PMS_P1;PMS_P2;Temp;Humidity;BMP_temperature;BMP_pressure;BME280_temperature;BME280_humidity;BME280_pressure;Samples;Min_cycle;Max_cycle;Signal;HPM_P1;HPM_P2
2023/01/27 00:01:08;;;;;;;9.40;6.53;;;;;;;14.22;47.53;100261.56;5073061;28;20052;-52
2023/01/27 00:03:36;;;;;;;11.38;6.90;;;;;;;14.19;47.42;100261.81;5072763;28;20040;-54
2023/01/27 00:06:05;;;;;;;9.55;6.18;;;;;;;14.20;47.46;100262.66;5072720;28;20045;-51
2023/01/27 00:08:35;;;;;;;9.30;6.72;;;;;;;14.17;47.53;100263.72;5072506;28;20068;-53
2023/01/27 00:14:03;;;;;;;9.52;6.28;;;;;;;14.09;47.73;100266.16;5030165;28;20053;-54
2023/01/27 00:16:31;;;;;;;10.18;6.80;;;;;;;14.08;47.70;100263.56;5030299;28;20049;-51
2023/01/27 00:18:59;;;;;;;9.48;6.70;;;;;;;14.04;47.41;100263.78;5049450;28;20061;-54
2023/01/27 00:26:59;;;;;;;9.73;6.45;;;;;;;13.95;47.62;100247.53;5072096;28;20052;-52
2023/01/27 00:29:28;;;;;;;9.27;6.38;;;;;;;13.93;47.67;100244.09;5072226;28;20048;-53
2023/01/27 00:34:42;;;;;;;10.68;7.10;;;;;;;13.88;47.45;100252.47;5072089;28;20066;-52
2023/01/27 00:37:10;;;;;;;10.85;6.75;;;;;;;13.85;47.69;100246.50;5072106;28;20045;-54
2023/01/27 00:39:40;;;;;;;10.18;6.53;;;;;;;13.83;47.57;100251.13;5071570;28;20083;-52
2023/01/27 00:42:08;;;;;;;10.00;6.78;;;;;;;13.80;47.58;100254.00;5071878;28;20098;-51
2023/01/27 00:44:37;;;;;;;10.38;6.80;;;;;;;13.77;47.69;100249.72;5072004;28;20460;-51
2023/01/27 00:47:05;;;;;;;9.75;6.50;;;;;;;13.77;47.51;100254.25;5071984;28;20123;-54
2023/01/27 00:49:34;;;;;;;10.38;6.90;;;;;;;13.73;47.42;100254.47;5071954;28;20094;-53
2023/01/27 00:52:02;;;;;;;10.23;7.00;;;;;;;13.71;47.46;100242.16;5071878;28;20103;-53
2023/01/27 00:54:30;;;;;;;12.45;7.15;;;;;;;13.69;47.41;100247.59;5071759;28;20048;-54
2023/01/27 00:56:59;;;;;;;9.93;6.78;;;;;;;13.66;47.54;100245.16;5071821;28;20076;-51
2023/01/27 00:59:27;;;;;;;10.30;6.75;;;;;;;13.59;47.69;100235.84;5071766;28;20048;-52
2023/01/27 01:01:56;;;;;;;11.07;7.00;;;;;;;13.61;47.53;100244.66;5071806;28;20481;-54
2023/01/27 01:04:24;;;;;;;10.55;6.90;;;;;;;13.56;47.60;100244.13;5071819;28;20402;-52
2023/01/27 01:06:52;;;;;;;10.05;6.28;;;;;;;13.56;47.68;100244.13;5071707;28;20048;-55
2023/01/27 01:09:20;;;;;;;10.40;6.60;;;;;;;13.52;47.53;100242.66;5071727;28;20044;-53
2023/01/27 01:11:48;;;;;;;10.35;7.13;;;;;;;13.51;47.55;100240.94;5071717;28;20083;-54
2023/01/27 01:14:18;;;;;;;11.85;7.10;;;;;;;13.49;47.71;100244.66;5071559;28;20051;-52
2023/01/27 01:16:46;;;;;;;9.90;6.57;;;;;;;13.46;47.73;100245.75;5071660;28;20493;-54
2023/01/27 01:19:14;;;;;;;11.15;7.03;;;;;;;13.43;47.64;100232.59;5071658;28;20468;-54
2023/01/27 01:21:42;;;;;;;10.32;6.88;;;;;;;13.41;47.77;100237.19;5071444;28;20481;-54
2023/01/27 01:24:10;;;;;;;10.52;6.95;;;;;;;13.39;47.63;100241.81;5071557;28;20124;-52
2023/01/27 01:26:39;;;;;;;11.13;7.10;;;;;;;13.37;47.59;100238.38;5071494;28;20064;-53
2023/01/27 01:29:07;;;;;;;10.70;6.53;;;;;;;13.37;47.57;100243.75;5071381;28;20061;-51
2023/01/27 01:31:37;;;;;;;11.10;6.75;;;;;;;13.31;47.50;100234.31;5071468;28;20123;-54
2023/01/27 01:34:05;;;;;;;10.35;6.43;;;;;;;13.31;47.48;100236.13;5071365;28;20044;-53
2023/01/27 01:36:34;;;;;;;11.82;6.88;;;;;;;13.32;47.56;100232.50;5071268;28;20054;-54
2023/01/27 01:39:02;;;;;;;11.68;6.57;;;;;;;13.29;47.52;100232.72;5071423;28;20044;-53
2023/01/27 01:41:30;;;;;;;10.77;6.60;;;;;;;13.25;47.50;100231.22;5071469;28;20436;-54
2023/01/27 01:43:58;;;;;;;10.23;6.63;;;;;;;13.23;47.60;100227.81;5071475;28;20049;-53
2023/01/27 01:46:26;;;;;;;10.98;7.05;;;;;;;13.22;47.49;100231.44;5071318;28;20048;-54
2023/01/27 01:49:00;;;;;;;10.45;6.60;;;;;;;13.21;47.60;100235.94;5071272;28;20127;-52
2023/01/27 01:51:34;;;;;;;11.55;7.05;;;;;;;13.16;47.62;100233.56;5071847;28;20048;-52
2023/01/27 01:54:07;;;;;;;9.70;6.25;;;;;;;13.16;47.56;100238.91;5075213;28;20074;-54
2023/01/27 01:56:37;;;;;;;;;;;;;;;13.14;47.65;100230.16;5075742;28;20451;-54
2023/01/27 01:59:08;;;;;;;9.48;6.03;;;;;;;13.11;47.45;100235.69;5075178;28;20011;-54
2023/01/27 02:01:36;;;;;;;9.95;6.65;;;;;;;13.07;47.64;100223.50;5075028;28;20048;-53
2023/01/27 02:04:11;;;;;;;9.32;6.63;;;;;;;13.09;47.64;100232.28;5075126;28;20106;-51
2023/01/27 02:06:43;;;;;;;10.48;6.28;;;;;;;13.07;47.72;100223.50;5075017;28;20044;-54
2023/01/27 02:09:11;;;;;;;10.18;6.55;;;;;;;13.04;47.63;100220.19;5075068;28;20102;-52
2023/01/27 02:11:39;;;;;;;10.27;6.85;;;;;;;13.03;47.63;100222.03;5074869;28;20055;-50
2023/01/27 02:14:08;;;;;;;10.23;6.55;;;;;;;13.01;47.53;100218.56;5074677;28;20110;-51
2023/01/27 02:16:36;;;;;;;9.57;6.50;;;;;;;12.99;47.63;100217.81;5074764;28;20068;-53
2023/01/27 02:19:10;;;;;;;11.82;7.25;;;;;;;12.98;47.53;100207.22;5074766;28;20048;-53
2023/01/27 02:21:39;;;;;;;10.55;6.65;;;;;;;12.95;47.64;100208.31;5074651;28;20045;-53
2023/01/27 02:24:11;;;;;;;11.55;6.80;;;;;;;12.93;47.58;100204.00;5074758;28;20044;-50
2023/01/27 02:26:43;;;;;;;9.68;6.53;;;;;;;12.92;47.70;100203.16;5073391;28;20044;-50
2023/01/27 02:29:13;;;;;;;11.67;6.80;;;;;;;12.89;47.37;100198.88;5074623;28;20068;-53
2023/01/27 02:31:44;;;;;;;9.38;6.07;;;;;;;12.89;47.67;100198.03;5073330;28;20505;-54
2023/01/27 02:34:16;;;;;;;10.55;6.90;;;;;;;12.85;47.55;100196.53;5074552;28;20060;-55
2023/01/27 02:36:49;;;;;;;8.68;5.90;;;;;;;12.85;47.61;100196.53;5074401;28;20044;-53
2023/01/27 02:39:20;;;;;;;10.07;6.38;;;;;;;12.83;47.61;100182.38;5074456;28;20051;-53
2023/01/27 02:41:52;;;;;;;9.38;6.50;;;;;;;12.80;47.59;100178.13;5074394;28;20045;-52
2023/01/27 02:44:20;;;;;;;10.43;6.63;;;;;;;12.78;47.57;100180.03;5074412;28;20148;-54
2023/01/27 02:46:48;;;;;;;10.10;6.53;;;;;;;12.77;47.54;100175.66;5074483;28;20097;-52
2023/01/27 02:49:17;;;;;;;8.30;5.65;;;;;;;12.75;47.53;100168.72;5074300;28;20521;-52
2023/01/27 02:51:45;;;;;;;10.02;6.25;;;;;;;12.74;47.60;100172.31;5074165;28;20041;-52
2023/01/27 02:54:13;;;;;;;8.70;6.30;;;;;;;12.72;47.71;100169.75;5074082;28;20052;-53
2023/01/27 02:56:41;;;;;;;11.07;6.95;;;;;;;12.71;47.61;100173.41;5074141;28;20123;-52
2023/01/27 02:59:11;;;;;;;9.57;6.63;;;;;;;12.68;47.61;100160.25;5074136;28;20051;-53
2023/01/27 03:01:39;;;;;;;8.50;5.50;;;;;;;12.69;47.67;100163.78;5072841;28;20041;-52
2023/01/27 03:04:10;;;;;;;8.98;5.95;;;;;;;12.67;47.62;100165.72;5073481;28;20481;-51
2023/01/27 03:06:38;;;;;;;9.93;6.47;;;;;;;12.65;47.70;100163.16;5073896;28;20045;-53
2023/01/27 03:09:07;;;;;;;9.38;6.05;;;;;;;12.64;47.64;100155.22;5073933;28;20490;-53
2023/01/27 03:19:52;;;;;;;9.30;6.05;;;;;;;12.57;47.66;100150.31;5052197;28;19932;-53
2023/01/27 03:22:20;;;;;;;8.85;5.85;;;;;;;12.55;47.61;100154.91;5073811;28;20048;-51
2023/01/27 03:24:48;;;;;;;8.68;6.05;;;;;;;12.52;47.74;100147.06;5073763;28;20044;-51
2023/01/27 03:27:16;;;;;;;8.40;6.00;;;;;;;12.51;47.58;100145.38;5073332;28;20057;-53
2023/01/27 03:29:55;;;;;;;10.95;6.13;;;;;;;12.52;47.90;100135.53;5073566;28;20127;-53
2023/01/27 03:32:24;;;;;;;7.97;5.25;;;;;;;12.53;48.09;100137.22;5073483;28;20401;-53
2023/01/27 03:34:52;;;;;;;7.75;5.60;;;;;;;12.55;48.54;100135.34;5073385;28;20044;-52
2023/01/27 03:48:30;;;;;;;8.60;5.43;;;;;;;13.03;48.56;100130.13;5073059;28;20493;-51
2023/01/27 03:50:59;;;;;;;8.50;5.47;;;;;;;13.08;48.60;100127.97;5073091;28;20106;-51
2023/01/27 03:53:28;;;;;;;8.15;5.40;;;;;;;13.13;48.42;100121.31;5073035;28;20543;-54
2023/01/27 03:55:56;;;;;;;8.23;5.30;;;;;;;13.20;48.49;100120.88;5072786;28;20123;-54
2023/01/27 03:58:29;;;;;;;7.80;5.60;;;;;;;13.22;48.23;100118.94;5072784;28;20044;-53
2023/01/27 04:01:00;;;;;;;7.78;4.90;;;;;;;13.23;48.40;100118.00;5071705;28;20075;-53
2023/01/27 04:09:04;;;;;;;7.78;4.90;;;;;;;13.23;48.22;100110.81;5072528;28;20041;-53
2023/01/27 04:14:18;;;;;;;8.50;5.43;;;;;;;13.18;48.41;100108.44;5071677;28;20041;-53
2023/01/27 04:16:48;;;;;;;8.23;4.82;;;;;;;13.20;48.33;100112.84;5072557;28;20386;-53
2023/01/27 04:19:17;;;;;;;7.78;5.18;;;;;;;13.19;48.24;100114.66;5072493;28;20592;-52
2023/01/27 04:21:45;;;;;;;7.07;4.93;;;;;;;13.15;48.27;100108.66;5072369;28;20110;-54
2023/01/27 04:24:21;;;;;;;8.43;5.20;;;;;;;13.13;48.32;100110.59;5072318;28;20040;-53
2023/01/27 04:26:53;;;;;;;7.75;5.35;;;;;;;13.10;48.36;100109.94;5072200;28;20144;-53
2023/01/27 04:29:22;;;;;;;8.00;5.18;;;;;;;13.11;48.20;100122.38;5072369;28;20051;-53
2023/01/27 04:31:52;;;;;;;7.72;5.00;;;;;;;13.09;48.20;100118.94;5072224;28;20048;-52
2023/01/27 04:34:20;;;;;;;7.93;5.10;;;;;;;13.05;48.24;100118.34;5072332;28;20102;-52
2023/01/27 04:36:49;;;;;;;7.90;4.65;;;;;;;13.05;48.05;100115.66;5072097;28;20044;-52
2023/01/27 04:39:18;;;;;;;7.63;4.85;;;;;;;13.07;48.11;100115.53;5072031;28;20052;-53
2023/01/27 04:41:47;;;;;;;9.45;4.97;;;;;;;13.08;48.29;100112.75;5072055;28;20493;-53
2023/01/27 04:44:16;;;;;;;7.63;5.05;;;;;;;13.16;48.35;100123.75;5071980;28;20633;-52
2023/01/27 04:46:44;;;;;;;8.63;5.47;;;;;;;13.25;48.34;100118.75;5071848;28;20052;-52
2023/01/27 04:49:13;;;;;;;8.80;5.15;;;;;;;13.33;48.31;100124.38;5072075;28;20053;-55
2023/01/27 04:51:41;;;;;;;7.43;4.90;;;;;;;13.40;48.13;100123.81;5072038;28;20051;-52
2023/01/27 04:54:10;;;;;;;9.60;5.53;;;;;;;13.48;48.17;100128.59;5071775;28;20438;-52
2023/01/27 04:56:41;;;;;;;7.90;4.80;;;;;;;13.55;48.17;100127.19;5071681;28;20135;-54
2023/01/27 04:59:14;;;;;;;8.40;5.35;;;;;;;13.60;48.01;100129.50;5071753;28;20045;-52
2023/01/27 05:01:42;;;;;;;8.05;4.70;;;;;;;13.70;48.05;100126.06;5071672;28;20051;-54
2023/01/27 05:04:10;;;;;;;7.80;5.25;;;;;;;13.77;47.90;100130.94;5071603;28;20516;-52
2023/01/27 05:06:40;;;;;;;8.48;5.03;;;;;;;13.87;47.92;100137.31;5071551;28;20067;-54
2023/01/27 05:09:08;;;;;;;8.07;4.93;;;;;;;13.95;47.87;100129.53;5071576;28;20049;-52
2023/01/27 05:11:36;;;;;;;8.18;4.95;;;;;;;14.05;47.66;100133.22;5071467;28;20138;-52
2023/01/27 05:14:04;;;;;;;8.60;5.30;;;;;;;14.12;47.67;100129.13;5071426;28;20114;-53
2023/01/27 05:16:32;;;;;;;7.70;4.65;;;;;;;14.20;47.55;100123.16;5071287;28;20374;-54
2023/01/27 05:19:01;;;;;;;8.10;4.75;;;;;;;14.30;47.58;100122.34;5071557;28;20048;-50
2023/01/27 05:21:30;;;;;;;7.47;4.68;;;;;;;14.39;47.29;100119.91;5071469;28;20055;-52
2023/01/27 05:24:01;;;;;;;9.32;4.68;;;;;;;14.48;47.23;100116.53;5071438;28;20049;-53
2023/01/27 05:26:29;;;;;;;8.10;5.28;;;;;;;14.57;47.10;100123.84;5071146;28;20052;-50
2023/01/27 05:28:58;;;;;;;9.00;4.85;;;;;;;14.66;47.08;100123.13;5071273;28;20060;-53
2023/01/27 05:31:28;;;;;;;8.32;5.07;;;;;;;14.73;47.04;100120.81;5071321;28;20433;-52
2023/01/27 05:33:59;;;;;;;7.35;4.78;;;;;;;14.81;46.91;100121.91;5071603;28;20124;-51
2023/01/27 05:36:28;;;;;;;8.00;4.90;;;;;;;14.91;46.84;100118.50;5071241;28;20139;-51
2023/01/27 05:39:01;;;;;;;7.65;4.55;;;;;;;14.97;46.65;100128.75;5071196;28;20044;-53
2023/01/27 05:41:30;;;;;;;7.35;4.82;;;;;;;14.99;46.68;100119.59;5071434;28;20040;-51
2023/01/27 05:43:59;;;;;;;7.70;4.53;;;;;;;15.02;46.65;100127.38;5071267;28;20044;-51
2023/01/27 05:46:29;;;;;;;7.32;4.72;;;;;;;15.04;46.54;100130.78;5071078;28;20051;-51
2023/01/27 05:49:00;;;;;;;6.68;4.40;;;;;;;15.06;46.57;100128.00;5071075;28;20428;-50
2023/01/27 05:51:30;;;;;;;8.32;4.90;;;;;;;15.04;46.48;100124.56;5071053;28;20052;-53
2023/01/27 05:53:58;;;;;;;7.88;5.10;;;;;;;15.03;46.51;100125.56;5071057;28;20378;-53
2023/01/27 05:56:27;;;;;;;7.07;4.55;;;;;;;15.00;46.57;100123.13;5070909;28;20040;-52
2023/01/27 05:58:57;;;;;;;7.90;4.65;;;;;;;14.98;46.55;100125.09;5071024;28;20090;-50
2023/01/27 06:01:27;;;;;;;7.40;4.93;;;;;;;14.95;46.54;100126.16;5070902;28;20105;-54
2023/01/27 06:03:55;;;;;;;7.75;4.95;;;;;;;14.92;46.52;100120.19;5070889;28;20098;-51
2023/01/27 06:06:25;;;;;;;8.10;4.80;;;;;;;14.86;46.50;100122.41;5070837;28;20056;-54
2023/01/27 06:08:54;;;;;;;8.02;5.03;;;;;;;14.82;46.55;100120.94;5071041;28;20045;-51
2023/01/27 06:11:24;;;;;;;7.70;5.20;;;;;;;14.78;46.54;100119.47;5070940;28;20420;-52
2023/01/27 06:13:53;;;;;;;6.95;4.53;;;;;;;14.74;46.54;100117.16;5070851;28;20049;-52
2023/01/27 06:16:22;;;;;;;8.15;5.20;;;;;;;14.71;46.48;100114.72;5070751;28;20045;-52
2023/01/27 06:18:51;;;;;;;7.65;4.88;;;;;;;14.64;46.45;100108.97;5070642;28;20048;-51
2023/01/27 06:21:19;;;;;;;7.45;4.60;;;;;;;14.58;46.49;100107.63;5070864;28;20114;-51
2023/01/27 06:23:48;;;;;;;7.18;4.80;;;;;;;14.56;46.54;100103.34;5070680;28;20123;-51
2023/01/27 06:26:19;;;;;;;8.77;4.97;;;;;;;14.53;46.52;100111.66;5070605;28;20055;-51
2023/01/27 06:28:47;;;;;;;7.47;4.95;;;;;;;14.46;46.73;100113.09;5070344;28;20052;-51
2023/01/27 06:31:19;;;;;;;8.32;4.90;;;;;;;14.43;46.68;100118.69;5070424;28;20044;-55
2023/01/27 06:33:48;;;;;;;6.57;4.60;;;;;;;14.38;46.64;100116.38;5070956;28;20074;-55
2023/01/27 06:36:18;;;;;;;7.00;4.75;;;;;;;14.35;46.66;100116.59;5070437;28;20090;-51
2023/01/27 06:38:47;;;;;;;8.00;5.07;;;;;;;14.28;46.68;100118.91;5072607;28;20048;-56
2023/01/27 06:41:15;;;;;;;7.13;4.72;;;;;;;14.25;46.88;100120.97;5074093;28;20189;-56
2023/01/27 06:43:43;;;;;;;8.27;5.35;;;;;;;14.19;46.95;100122.31;5074002;28;20047;-52
2023/01/27 06:46:11;;;;;;;8.07;5.28;;;;;;;14.16;47.04;100117.16;5073888;28;20044;-53
2023/01/27 06:48:41;;;;;;;8.02;5.32;;;;;;;14.09;47.02;100121.31;5073799;28;20049;-51
2023/01/27 06:51:09;;;;;;;9.77;5.72;;;;;;;14.06;47.05;100121.53;5073860;28;20064;-52
2023/01/27 06:53:37;;;;;;;9.05;5.68;;;;;;;14.01;46.96;100124.56;5073990;28;20052;-52
2023/01/27 06:56:06;;;;;;;8.18;5.35;;;;;;;13.94;46.95;100122.47;5073651;28;20090;-52
2023/01/27 06:58:34;;;;;;;7.43;5.07;;;;;;;13.93;47.05;100132.34;5073722;28;20485;-54
2023/01/27 07:01:06;;;;;;;9.60;5.30;;;;;;;13.88;47.20;100129.13;5073719;28;20044;-52
2023/01/27 07:03:34;;;;;;;8.25;5.07;;;;;;;13.86;47.09;100128.41;5073766;28;20207;-52
2023/01/27 07:06:04;;;;;;;9.43;5.80;;;;;;;13.82;47.05;100126.09;5073584;28;20473;-52
2023/01/27 07:08:33;;;;;;;8.60;5.22;;;;;;;13.80;46.96;100128.00;5071501;28;20045;-52
2023/01/27 07:11:03;;;;;;;8.48;5.38;;;;;;;13.75;47.02;100128.38;5072358;28;20064;-52
2023/01/27 07:13:31;;;;;;;9.55;5.38;;;;;;;13.72;47.27;100126.78;5072957;28;20045;-51
2023/01/27 07:16:00;;;;;;;8.93;5.50;;;;;;;13.69;47.18;100140.41;5072921;28;20053;-54
2023/01/27 07:18:28;;;;;;;9.75;5.22;;;;;;;13.65;47.26;100141.59;5072531;28;20048;-52
2023/01/27 07:20:56;;;;;;;9.05;5.32;;;;;;;13.61;47.46;100134.78;5073024;28;20055;-54
2023/01/27 07:23:26;;;;;;;8.02;5.07;;;;;;;13.60;47.40;100146.44;5072850;28;20048;-52
2023/01/27 07:25:54;;;;;;;11.32;5.88;;;;;;;13.59;47.50;100147.41;5073135;28;20052;-55
2023/01/27 07:28:22;;;;;;;9.57;5.38;;;;;;;13.59;47.49;100142.06;5072492;28;20122;-55
2023/01/27 07:30:52;;;;;;;10.20;5.60;;;;;;;13.64;47.55;100141.72;5072525;28;20041;-55
2023/01/27 07:33:20;;;;;;;9.80;5.38;;;;;;;13.65;47.62;100135.38;5071876;28;20044;-54
2023/01/27 07:35:49;;;;;;;9.52;5.50;;;;;;;13.74;47.70;100140.91;5071646;28;20067;-52
2023/01/27 07:38:17;;;;;;;10.25;5.80;;;;;;;13.84;47.64;100143.75;5071124;28;20070;-52
2023/01/27 07:40:47;;;;;;;10.27;5.38;;;;;;;13.90;47.75;100137.09;5071270;28;20051;-55
2023/01/27 07:43:15;;;;;;;10.85;5.35;;;;;;;13.98;47.63;100138.19;5071967;28;20041;-54
2023/01/27 07:45:47;;;;;;;12.25;5.57;;;;;;;14.08;47.44;100130.31;5072224;28;20749;-53
2023/01/27 07:48:16;;;;;;;9.57;5.10;;;;;;;14.17;47.58;100126.91;5071912;28;20109;-52
2023/01/27 07:50:44;;;;;;;10.25;5.30;;;;;;;14.25;47.50;100124.50;5072358;28;20052;-52
2023/01/27 07:53:12;;;;;;;11.95;5.60;;;;;;;14.33;47.34;100123.91;5072181;28;20048;-53
2023/01/27 07:55:41;;;;;;;11.73;5.03;;;;;;;14.42;47.33;100122.34;5072141;28;20055;-52
2023/01/27 07:58:11;;;;;;;9.48;5.25;;;;;;;14.51;47.38;100132.41;5072084;28;20494;-54
2023/01/27 08:00:39;;;;;;;13.07;5.30;;;;;;;14.56;47.18;100131.03;5072080;28;20068;-53
2023/01/27 08:03:08;;;;;;;10.68;5.00;;;;;;;14.64;47.15;100135.81;5072197;28;20040;-53
2023/01/27 08:05:37;;;;;;;12.48;5.30;;;;;;;14.67;47.17;100132.91;5072065;28;20123;-53
2023/01/27 08:08:05;;;;;;;10.07;4.85;;;;;;;14.72;47.20;100130.69;5071954;28;20041;-52
2023/01/27 08:10:34;;;;;;;12.68;5.55;;;;;;;14.71;47.14;100134.34;5071898;28;20045;-53
2023/01/27 08:13:02;;;;;;;11.65;5.07;;;;;;;14.73;47.48;100140.44;5071827;28;20439;-54
2023/01/27 08:15:32;;;;;;;11.68;5.47;;;;;;;14.71;47.38;100134.34;5071853;28;20076;-54
2023/01/27 08:18:01;;;;;;;9.52;5.05;;;;;;;14.74;47.64;100142.16;5071481;28;20428;-51
2023/01/27 08:20:29;;;;;;;12.90;5.43;;;;;;;14.71;47.78;100133.50;5071887;28;20119;-52
2023/01/27 08:22:57;;;;;;;11.25;5.55;;;;;;;14.71;47.75;100139.72;5071792;28;20425;-53
2023/01/27 08:25:25;;;;;;;14.55;6.05;;;;;;;14.67;47.69;100143.66;5071741;28;20047;-54
2023/01/27 08:27:56;;;;;;;12.65;5.78;;;;;;;14.65;47.81;100145.56;5071246;28;20139;-54
2023/01/27 08:30:25;;;;;;;14.07;6.20;;;;;;;14.62;47.80;100134.22;5071635;28;20079;-54
2023/01/27 08:32:55;;;;;;;14.95;6.63;;;;;;;14.61;47.85;100138.75;5070342;28;20076;-52
2023/01/27 08:35:23;;;;;;;14.70;6.22;;;;;;;14.59;47.93;100146.06;5071485;28;20094;-54
2023/01/27 08:37:51;;;;;;;12.45;6.13;;;;;;;14.55;47.85;100139.22;5071297;28;20136;-54
2023/01/27 08:40:19;;;;;;;12.20;5.97;;;;;;;14.53;47.53;100144.72;5071364;28;20045;-54
2023/01/27 08:42:49;;;;;;;11.07;5.60;;;;;;;14.55;47.40;100150.81;5071464;28;20050;-52
2023/01/27 08:45:18;;;;;;;10.18;5.82;;;;;;;14.60;47.49;100156.69;5071321;28;20440;-54
2023/01/27 08:47:46;;;;;;;11.30;5.53;;;;;;;14.66;47.39;100155.31;5071416;28;20110;-55
2023/01/27 08:50:16;;;;;;;11.88;5.63;;;;;;;14.71;47.49;100150.47;5071145;28;20052;-52
2023/01/27 08:52:45;;;;;;;10.88;5.70;;;;;;;14.77;47.47;100160.72;5071043;28;20044;-57
2023/01/27 08:55:14;;;;;;;12.32;5.72;;;;;;;14.84;47.42;100161.94;5071284;28;20052;-55
2023/01/27 08:57:42;;;;;;;13.85;5.53;;;;;;;14.89;47.24;100154.38;5070924;28;20048;-52
2023/01/27 09:00:12;;;;;;;22.25;7.32;;;;;;;15.10;51.36;100151.81;5071041;28;20048;-55
2023/01/27 09:02:41;;;;;;;16.63;7.20;;;;;;;15.30;52.64;100152.88;5071109;28;20128;-55
2023/01/27 09:05:13;;;;;;;31.10;11.32;;;;;;;15.49;55.18;100154.91;5071218;28;20351;-54
2023/01/27 09:07:42;;;;;;;19.20;8.18;;;;;;;15.65;52.61;100157.25;5070840;28;20068;-54
2023/01/27 09:10:11;;;;;;;17.42;7.47;;;;;;;15.79;51.95;100159.63;5070791;28;20529;-52
2023/01/27 09:12:43;;;;;;;21.42;7.82;;;;;;;15.95;51.93;100165.44;5070855;28;20041;-53
2023/01/27 09:15:13;;;;;;;17.50;7.38;;;;;;;16.09;51.82;100166.09;5071057;28;20512;-53
2023/01/27 09:17:41;;;;;;;21.92;7.82;;;;;;;16.19;51.67;100167.03;5070683;28;20044;-52
2023/01/27 09:20:11;;;;;;;17.40;7.15;;;;;;;16.28;51.24;100166.25;5070898;28;20078;-51
2023/01/27 09:22:42;;;;;;;16.10;6.93;;;;;;;16.41;51.14;100166.94;5070728;28;20075;-53
2023/01/27 09:25:14;;;;;;;13.48;6.88;;;;;;;16.49;51.08;100164.41;5070913;28;20044;-52
2023/01/27 09:27:43;;;;;;;20.90;7.57;;;;;;;16.63;50.62;100174.00;5070293;28;20128;-51
2023/01/27 09:30:13;;;;;;;18.20;7.20;;;;;;;16.71;50.43;100168.84;5070863;28;20055;-52
2023/01/27 09:32:43;;;;;;;12.80;6.68;;;;;;;16.81;50.37;100169.75;5070649;28;20036;-52
2023/01/27 09:35:11;;;;;;;14.95;6.82;;;;;;;16.89;50.47;100169.06;5070563;28;20047;-52
2023/01/27 09:37:47;;;;;;;14.32;7.18;;;;;;;16.96;50.15;100167.53;5070578;28;20059;-52
2023/01/27 09:40:28;;;;;;;12.98;6.57;;;;;;;17.01;50.04;100169.81;5070448;28;20123;-51
2023/01/27 09:43:17;;;;;;;18.45;6.80;;;;;;;17.04;49.88;100170.41;5070767;28;20516;-52
2023/01/27 09:46:17;;;;;;;16.73;6.97;;;;;;;17.06;49.70;100165.72;5070435;28;20106;-54
2023/01/27 09:49:09;;;;;;;16.52;7.10;;;;;;;17.11;49.52;100166.19;5070536;28;20370;-51
2023/01/27 09:51:49;;;;;;;17.70;6.75;;;;;;;17.09;49.13;100161.94;5070707;28;20377;-51
2023/01/27 09:54:31;;;;;;;16.25;6.85;;;;;;;17.05;48.81;100166.72;5070332;28;20469;-50
2023/01/27 09:57:09;;;;;;;14.25;6.75;;;;;;;17.02;48.59;100167.00;5070838;28;20458;-49
2023/01/27 10:00:08;;;;;;;15.93;6.28;;;;;;;17.00;48.44;100160.03;5070300;28;20037;-49
2023/01/27 10:03:12;;;;;;;14.05;5.78;;;;;;;17.00;48.47;100163.59;5065510;28;20049;-51
2023/01/27 10:06:03;;;;;;;11.75;5.85;;;;;;;17.01;48.25;100164.44;5070170;28;20134;-50
2023/01/27 10:08:51;;;;;;;13.63;6.10;;;;;;;17.01;48.09;100165.28;5067965;28;20048;-50
2023/01/27 10:11:30;;;;;;;13.93;5.68;;;;;;;17.04;47.98;100165.00;5070426;28;20098;-53
2023/01/27 10:14:14;;;;;;;14.15;6.00;;;;;;;17.04;47.78;100158.78;5073331;28;20041;-51
2023/01/27 10:16:57;;;;;;;13.98;6.28;;;;;;;17.08;47.74;100160.19;5074187;28;20485;-51
2023/01/27 10:19:50;;;;;;;11.85;5.95;;;;;;;17.12;47.52;100157.09;5073753;28;20048;-50
2023/01/27 10:22:28;;;;;;;12.25;5.75;;;;;;;17.16;47.37;100161.22;5073960;28;20452;-50
2023/01/27 10:25:08;;;;;;;11.02;5.57;;;;;;;17.22;47.30;100165.22;5074325;28;20144;-51
2023/01/27 10:27:46;;;;;;;10.48;5.63;;;;;;;17.25;47.28;100161.41;5073741;28;20060;-49
2023/01/27 10:30:21;;;;;;;12.63;5.65;;;;;;;17.32;47.16;100166.09;5073780;28;20052;-52
2023/01/27 10:32:58;;;;;;;11.10;5.38;;;;;;;17.36;47.03;100170.22;5074067;28;20450;-50
2023/01/27 10:35:31;;;;;;;12.13;5.32;;;;;;;17.40;46.92;100163.56;5074028;28;20055;-52
2023/01/27 10:38:08;;;;;;;10.50;5.45;;;;;;;17.42;46.98;100158.91;5073375;28;20094;-53
2023/01/27 10:40:47;;;;;;;9.95;4.85;;;;;;;17.47;47.07;100161.19;5073783;28;20543;-51
2023/01/27 10:43:26;;;;;;;10.85;5.00;;;;;;;17.49;46.77;100153.81;5073687;28;20433;-51
2023/01/27 10:46:03;;;;;;;9.07;5.05;;;;;;;17.46;47.03;100149.53;5073768;28;20126;-50
2023/01/27 10:48:42;;;;;;;10.38;5.03;;;;;;;17.47;46.79;100155.78;5073198;28;20093;-49
2023/01/27 10:51:13;;;;;;;12.60;4.90;;;;;;;17.48;46.72;100153.94;5073710;28;20488;-49
2023/01/27 10:53:56;;;;;;;31.48;22.05;;;;;;;17.50;47.00;100158.22;5073694;28;20045;-51
2023/01/27 10:56:33;;;;;;;19.92;12.13;;;;;;;17.49;46.90;100153.81;5073531;28;20048;-50
2023/01/27 10:59:09;;;;;;;20.65;12.02;;;;;;;17.48;46.98;100146.72;5073249;28;20140;-49
2023/01/27 11:01:43;;;;;;;19.17;11.80;;;;;;;17.47;46.88;100150.41;5073545;28;20048;-52
2023/01/27 11:04:15;;;;;;;20.25;13.02;;;;;;;17.42;46.94;100137.31;5073291;28;20127;-53
2023/01/27 11:06:46;;;;;;;19.92;13.60;;;;;;;17.48;47.20;100149.41;5073297;28;20386;-51
2023/01/27 11:09:24;;;;;;;23.20;16.35;;;;;;;17.45;47.30;100133.50;5073036;28;20054;-52
2023/01/27 11:11:53;;;;;;;24.08;15.02;;;;;;;17.46;47.03;100138.75;5073242;28;20054;-51
2023/01/27 11:14:28;;;;;;;23.02;13.75;;;;;;;17.44;47.24;100134.47;5073206;28;20094;-51
2023/01/27 11:17:03;;;;;;;22.15;13.40;;;;;;;17.39;47.01;100131.38;5072406;28;20052;-50
2023/01/27 11:19:47;;;;;;;22.20;14.18;;;;;;;17.35;47.10;100138.00;5072545;28;20223;-50
2023/01/27 11:22:22;;;;;;;20.27;13.52;;;;;;;17.30;47.02;100127.66;5072787;28;20047;-53
2023/01/27 11:25:02;;;;;;;19.17;13.02;;;;;;;17.26;46.99;100130.75;5072407;28;20044;-50
2023/01/27 11:27:44;;;;;;;20.33;13.18;;;;;;;17.19;46.92;100130.47;5072503;28;20555;-50
2023/01/27 11:30:19;;;;;;;21.77;14.00;;;;;;;17.13;46.98;100131.84;5072545;28;20048;-51
2023/01/27 11:32:54;;;;;;;25.48;15.48;;;;;;;17.09;47.23;100130.44;5072500;28;20119;-50
2023/01/27 11:35:22;;;;;;;21.75;15.38;;;;;;;17.05;47.16;100125.44;5072539;28;20044;-51
2023/01/27 11:37:52;;;;;;;26.70;17.05;;;;;;;16.99;47.51;100128.69;5072372;28;20653;-51
2023/01/27 11:40:33;;;;;;;25.13;17.35;;;;;;;16.91;47.55;100113.22;5072677;28;20512;-51
2023/01/27 11:43:03;;;;;;;23.73;16.02;;;;;;;16.85;47.51;100116.44;5072373;28;20048;-50
2023/01/27 11:45:36;;;;;;;23.80;17.20;;;;;;;16.81;47.70;100117.72;5072586;28;20405;-51
2023/01/27 11:48:09;;;;;;;21.13;14.77;;;;;;;16.73;47.53;100117.53;5072034;28;20048;-51
2023/01/27 11:50:37;;;;;;;23.45;16.10;;;;;;;16.68;47.49;100117.03;5072237;28;20044;-52
2023/01/27 11:53:14;;;;;;;23.40;15.27;;;;;;;16.60;47.55;100112.34;5071975;28;20055;-52
2023/01/27 11:55:47;;;;;;;22.25;14.63;;;;;;;16.55;47.40;100109.19;5072185;28;20079;-50
2023/01/27 11:58:20;;;;;;;27.07;15.50;;;;;;;16.48;47.29;100097.22;5071887;28;20064;-50
2023/01/27 12:00:55;;;;;;;23.52;15.00;;;;;;;16.43;47.26;100100.34;5072158;28;20048;-50
2023/01/27 12:03:30;;;;;;;20.90;14.68;;;;;;;16.37;47.22;100094.63;5072329;28;20094;-49
2023/01/27 12:06:04;;;;;;;20.55;13.15;;;;;;;16.31;46.92;100087.97;5071885;28;20052;-51
2023/01/27 12:08:40;;;;;;;20.52;13.75;;;;;;;16.25;47.27;100083.09;5071746;28;20050;-49
2023/01/27 12:11:18;;;;;;;20.13;14.30;;;;;;;16.20;47.36;100088.84;5072021;28;20048;-53
2023/01/27 12:13:54;;;;;;;19.48;12.90;;;;;;;16.13;47.21;100087.69;5072059;28;20369;-50
2023/01/27 12:16:28;;;;;;;20.08;13.40;;;;;;;16.08;47.11;100083.69;5071829;28;20474;-51